Time;durP1;ratioP1;P1;durP2;ratioP2;P2;SDS_P1;SDS_P2;PMS_P1;PMS_P2;Temp;Humidity;BMP_temperature;BMP_pressure;BME280_temperature;BME280_humidity;BME280_pressure;Samples;Min_cycle;Max_cycle;Signal;HPM_P1;HPM_P2
2022/01/09 00:00:39;;;;;;;;;;;4.00;99.90;;;;;;5149294;27;19927;-55
2022/01/09 00:03:05;;;;;;;;;;;3.90;99.90;;;;;;5133897;27;19935;-56
2022/01/09 00:05:31;;;;;;;;;;;4.00;99.90;;;;;;5132530;27;19932;-56
2022/01/09 00:07:56;;;;;;;;;;;3.90;99.90;;;;;;5134936;27;19927;-56
2022/01/09 00:10:22;;;;;;;;;;;4.00;99.90;;;;;;5146883;27;20357;-56
2022/01/09 00:12:48;;;;;;;;;;;4.00;99.90;;;;;;5141547;27;19975;-58
2022/01/09 00:15:14;;;;;;;;;;;4.00;99.90;;;;;;5137109;27;19923;-56
2022/01/09 00:17:40;;;;;;;;;;;4.00;99.90;;;;;;5146661;27;19984;-56
2022/01/09 00:20:06;;;;;;;;;;;4.00;99.90;;;;;;5147361;27;20009;-57
2022/01/09 00:25:00;;;;;;;;;;;4.00;99.90;;;;;;5145046;27;19992;-58
2022/01/09 00:27:26;;;;;;;;;;;4.00;99.90;;;;;;5133611;27;19927;-57
2022/01/09 00:29:52;;;;;;;;;;;4.00;99.90;;;;;;5145451;27;20387;-56
2022/01/09 00:32:17;;;;;;;;;;;4.00;99.90;;;;;;5153933;27;19923;-56
2022/01/09 00:34:45;;;;;;;;;;;4.00;99.90;;;;;;5136725;27;19973;-56
2022/01/09 00:37:11;;;;;;;;;;;4.00;99.90;;;;;;5149141;27;19934;-61
2022/01/09 00:39:37;;;;;;;;;;;4.00;99.90;;;;;;5140914;27;19923;-58
2022/01/09 00:42:03;;;;;;;;;;;5.80;99.90;;;;;;5146063;27;20369;-63
2022/01/09 00:44:28;;;;;;;;;;;4.00;99.90;;;;;;5139925;27;20301;-65
2022/01/09 00:46:56;;;;;;;;;;;4.00;99.90;;;;;;5151693;27;20296;-69
2022/01/09 00:49:22;;;;;;;;;;;4.30;99.90;;;;;;5140562;27;20296;-58
2022/01/09 00:51:48;;;;;;;;;;;4.00;99.90;;;;;;5151174;27;19923;-56
2022/01/09 00:54:13;;;;;;;;;;;4.00;99.90;;;;;;5140928;27;19931;-60
2022/01/09 00:56:39;;;;;;;;;;;4.00;99.90;;;;;;5150120;27;19934;-57
2022/01/09 00:59:04;;;;;;;;;;;4.00;99.90;;;;;;5138064;27;19922;-56
2022/01/09 01:01:30;;;;;;;;;;;4.00;99.90;;;;;;5147998;27;20060;-60
2022/01/09 01:03:56;;;;;;;;;;;4.00;99.90;;;;;;5135844;27;20338;-64
2022/01/09 01:06:21;;;;;;;;;;;4.00;99.90;;;;;;5135989;27;19927;-56
2022/01/09 01:08:47;;;;;;;;;;;4.00;99.90;;;;;;5151389;27;20023;-63
2022/01/09 01:11:13;;;;;;;;;;;4.00;99.90;;;;;;5137609;27;19930;-61
2022/01/09 01:13:38;;;;;;;;;;;4.00;99.90;;;;;;5146335;27;20278;-55
2022/01/09 01:16:04;;;;;;;;;;;4.90;99.90;;;;;;5146202;27;19933;-56
2022/01/09 01:18:29;;;;;;;;;;;4.00;99.90;;;;;;5137443;27;19988;-57
2022/01/09 01:20:55;;;;;;;;;;;4.00;99.90;;;;;;5151453;27;20018;-56
2022/01/09 01:23:21;;;;;;;;;;;4.00;99.90;;;;;;5139673;27;20017;-57
2022/01/09 01:25:51;;;;;;;;;;;4.50;99.90;;;;;;5144981;27;20288;-56
2022/01/09 01:28:17;;;;;;;;;;;4.00;99.90;;;;;;5146618;27;19923;-59
2022/01/09 01:30:43;;;;;;;;;;;4.00;99.90;;;;;;5136667;27;19934;-57
2022/01/09 01:33:08;;;;;;;;;;;4.00;99.90;;;;;;5137852;27;19923;-55
2022/01/09 01:35:34;;;;;;;;;;;4.00;99.90;;;;;;5146535;27;19924;-56
2022/01/09 01:38:00;;;;;;;;;;;4.00;99.90;;;;;;5145070;27;19962;-56
2022/01/09 01:40:26;;;;;;;;;;;4.00;99.90;;;;;;5146451;27;20392;-58
2022/01/09 01:42:51;;;;;;;;;;;4.00;99.90;;;;;;5136746;27;19976;-57
2022/01/09 01:45:17;;;;;;;;;;;4.00;99.90;;;;;;5149086;27;19931;-56
2022/01/09 01:47:43;;;;;;;;;;;4.00;99.90;;;;;;5142403;27;19931;-56
2022/01/09 01:50:12;;;;;;;;;;;4.00;99.90;;;;;;5141433;27;20376;-55
2022/01/09 01:52:44;;;;;;;;;;;4.00;99.90;;;;;;5149309;27;19946;-55
2022/01/09 01:55:11;;;;;;;;;;;4.00;99.90;;;;;;5119093;27;19945;-55
2022/01/09 01:57:40;;;;;;;;;;;4.00;99.90;;;;;;5151985;27;20025;-56
2022/01/09 02:00:07;;;;;;;;;;;4.00;99.90;;;;;;5141295;27;20014;-56
2022/01/09 02:02:32;;;;;;;;;;;4.00;99.90;;;;;;5129947;27;19923;-56
2022/01/09 02:04:58;;;;;;;;;;;4.00;99.90;;;;;;5149832;27;19927;-55
2022/01/09 02:07:24;;;;;;;;;;;4.00;99.90;;;;;;5138706;27;19923;-55
2022/01/09 02:09:49;;;;;;;;;;;4.00;99.90;;;;;;5142182;27;20460;-56
2022/01/09 02:12:16;;;;;;;;;;;4.00;99.90;;;;;;5146000;27;20047;-55
2022/01/09 02:14:46;;;;;;;;;;;4.10;99.90;;;;;;5134791;27;19927;-56
2022/01/09 02:17:15;;;;;;;;;;;4.00;99.90;;;;;;5149225;27;19946;-55
2022/01/09 02:19:48;;;;;;;;;;;4.10;99.90;;;;;;5135764;27;19931;-57
2022/01/09 02:22:15;;;;;;;;;;;4.10;99.90;;;;;;5146676;27;19971;-55
2022/01/09 02:24:41;;;;;;;;;;;4.10;99.90;;;;;;5135712;27;19924;-56
2022/01/09 02:27:07;;;;;;;;;;;4.10;99.90;;;;;;5148051;27;19972;-56
2022/01/09 02:29:33;;;;;;;;;;;4.10;99.90;;;;;;5138981;27;19923;-57
2022/01/09 02:31:58;;;;;;;;;;;4.10;99.90;;;;;;5151431;27;20013;-56
2022/01/09 02:34:24;;;;;;;;;;;4.10;99.90;;;;;;5137269;27;19923;-61
2022/01/09 02:36:49;;;;;;;;;;;4.10;99.90;;;;;;5149334;27;20302;-62
2022/01/09 02:39:18;;;;;;;;;;;4.10;99.90;;;;;;5136563;27;20031;-67
2022/01/09 02:41:43;;;;;;;;;;;4.10;99.90;;;;;;5141816;27;20000;-66
2022/01/09 02:44:10;;;;;;;;;;;4.10;99.90;;;;;;5121639;27;19923;-66
2022/01/09 02:49:05;;;;;;;;;;;4.30;99.90;;;;;;5134264;27;19924;-65
2022/01/09 02:51:30;;;;;;;;;;;4.10;99.90;;;;;;5139490;27;20014;-67
2022/01/09 02:54:12;;;;;;;;;;;4.10;99.90;;;;;;5141467;27;20071;-56
2022/01/09 02:56:38;;;;;;;;;;;4.10;99.90;;;;;;5149107;27;20218;-58
2022/01/09 02:59:03;;;;;;;;;;;4.10;99.90;;;;;;5135897;27;20014;-57
2022/01/09 03:01:29;;;;;;;;;;;4.10;99.90;;;;;;5145838;27;19930;-56
2022/01/09 03:03:54;;;;;;;;;;;4.90;99.90;;;;;;5132758;27;20397;-57
2022/01/09 03:06:20;;;;;;;;;;;4.20;99.90;;;;;;5131307;27;19930;-57
2022/01/09 03:08:46;;;;;;;;;;;4.60;99.90;;;;;;5142625;27;20426;-58
2022/01/09 03:11:11;;;;;;;;;;;4.20;99.90;;;;;;5144327;27;20388;-56
2022/01/09 03:13:37;;;;;;;;;;;4.30;99.90;;;;;;5139645;27;20006;-56
2022/01/09 03:16:02;;;;;;;;;;;4.20;99.90;;;;;;5139886;27;19919;-56
2022/01/09 03:18:28;;;;;;;;;;;4.20;99.90;;;;;;5147098;27;19923;-56
2022/01/09 03:20:54;;;;;;;;;;;4.20;99.90;;;;;;5135582;27;19923;-57
2022/01/09 03:23:19;;;;;;;;;;;4.20;99.90;;;;;;5146813;27;20277;-59
2022/01/09 03:25:45;;;;;;;;;;;4.30;99.90;;;;;;5140561;27;20493;-56
2022/01/09 03:28:10;;;;;;;;;;;4.30;99.90;;;;;;5143763;27;19923;-57
2022/01/09 03:30:36;;;;;;;;;;;4.40;99.90;;;;;;5135883;27;19924;-56
2022/01/09 03:33:02;;;;;;;;;;;4.40;99.90;;;;;;5133819;27;19930;-56
2022/01/09 03:35:28;;;;;;;;;;;4.50;99.90;;;;;;5145501;27;20448;-56
2022/01/09 03:37:53;;;;;;;;;;;4.50;99.90;;;;;;5123488;27;20096;-56
2022/01/09 03:40:22;;;;;;;;;;;4.60;99.90;;;;;;5145825;27;20017;-55
2022/01/09 03:42:48;;;;;;;;;;;4.70;99.90;;;;;;5133828;27;20444;-56
2022/01/09 03:45:14;;;;;;;;;;;5.00;99.90;;;;;;5146926;27;19974;-56
2022/01/09 03:47:40;;;;;;;;;;;4.80;99.90;;;;;;5138963;27;20345;-57
2022/01/09 03:50:07;;;;;;;;;;;4.60;99.90;;;;;;5139909;27;19991;-55
2022/01/09 03:52:34;;;;;;;;;;;4.90;99.90;;;;;;5147835;27;19936;-65
2022/01/09 03:54:59;;;;;;;;;;;4.90;99.90;;;;;;5133569;27;19991;-65
2022/01/09 03:57:25;;;;;;;;;;;4.90;99.90;;;;;;5148198;27;20377;-61
2022/01/09 03:59:50;;;;;;;;;;;4.90;99.90;;;;;;5140717;27;19927;-67
2022/01/09 04:02:16;;;;;;;;;;;5.00;99.90;;;;;;5144003;27;20015;-64
2022/01/09 04:04:42;;;;;;;;;;;5.00;99.90;;;;;;5148233;27;19968;-66
2022/01/09 04:07:07;;;;;;;;;;;5.00;99.90;;;;;;5133073;27;20381;-66
2022/01/09 04:09:40;;;;;;;;;;;5.00;99.90;;;;;;5120630;27;19927;-60
2022/01/09 04:12:14;;;;;;;;;;;5.00;99.90;;;;;;5139818;27;20306;-57
2022/01/09 04:14:39;;;;;;;;;;;5.00;99.90;;;;;;5144190;27;20022;-58
2022/01/09 04:17:08;;;;;;;;;;;5.00;99.90;;;;;;5148312;27;20027;-62
2022/01/09 04:19:33;;;;;;;;;;;5.10;99.90;;;;;;5137685;27;19923;-60
2022/01/09 04:21:59;;;;;;;;;;;5.10;99.90;;;;;;5138932;27;19930;-55
2022/01/09 04:24:25;;;;;;;;;;;5.10;99.90;;;;;;5138865;27;19924;-60
2022/01/09 04:26:50;;;;;;;;;;;5.10;99.90;;;;;;5147880;27;19927;-56
2022/01/09 04:29:16;;;;;;;;;;;5.10;99.90;;;;;;5135851;27;19927;-60
2022/01/09 04:31:41;;;;;;;;;;;5.60;99.90;;;;;;5153817;27;20377;-55
2022/01/09 04:34:07;;;;;;;;;;;5.70;99.90;;;;;;5143241;27;19923;-55
2022/01/09 04:36:32;;;;;;;;;;;5.10;99.90;;;;;;5150390;27;19923;-59
2022/01/09 04:38:58;;;;;;;;;;;5.20;99.90;;;;;;5138307;27;19933;-56
2022/01/09 04:41:24;;;;;;;;;;;5.20;99.90;;;;;;5144641;27;19923;-59
2022/01/09 04:43:50;;;;;;;;;;;5.20;99.90;;;;;;5143541;27;20019;-62
2022/01/09 04:46:23;;;;;;;;;;;5.20;99.90;;;;;;5148333;27;19979;-60
2022/01/09 04:48:52;;;;;;;;;;;5.30;99.90;;;;;;5137846;27;19931;-58
2022/01/09 04:51:17;;;;;;;;;;;5.40;99.90;;;;;;5131192;27;20022;-55
2022/01/09 04:53:43;;;;;;;;;;;5.80;99.90;;;;;;5141942;27;20029;-57
2022/01/09 04:56:08;;;;;;;;;;;5.50;99.90;;;;;;5142350;27;19923;-56
2022/01/09 04:58:34;;;;;;;;;;;5.50;99.90;;;;;;5150863;27;20016;-57
2022/01/09 05:00:59;;;;;;;;;;;5.60;99.90;;;;;;5151768;27;20011;-57
2022/01/09 05:03:25;;;;;;;;;;;5.60;99.90;;;;;;5139421;27;20444;-56
2022/01/09 05:05:51;;;;;;;;;;;5.70;99.90;;;;;;5144454;27;19927;-56
2022/01/09 05:08:16;;;;;;;;;;;5.70;99.90;;;;;;5137269;27;19927;-56
2022/01/09 05:10:42;;;;;;;;;;;5.70;99.90;;;;;;5149336;27;19926;-55
2022/01/09 05:13:07;;;;;;;;;;;5.70;99.90;;;;;;5137479;27;20030;-56
2022/01/09 05:15:33;;;;;;;;;;;6.10;99.90;;;;;;5145656;27;19931;-56
2022/01/09 05:18:03;;;;;;;;;;;5.80;99.90;;;;;;5144676;27;19945;-61
2022/01/09 05:20:29;;;;;;;;;;;5.80;99.90;;;;;;5137923;27;19972;-56
2022/01/09 05:22:54;;;;;;;;;;;5.80;99.90;;;;;;5151324;27;20314;-58
2022/01/09 05:25:20;;;;;;;;;;;5.80;99.90;;;;;;5139524;27;19930;-60
2022/01/09 05:27:46;;;;;;;;;;;5.80;99.90;;;;;;5146513;27;19935;-59
2022/01/09 05:30:11;;;;;;;;;;;5.80;99.90;;;;;;5139636;27;20389;-57
2022/01/09 05:32:37;;;;;;;;;;;6.50;99.90;;;;;;5134244;27;20389;-58
2022/01/09 05:35:03;;;;;;;;;;;5.80;99.90;;;;;;5149040;27;19924;-57
2022/01/09 05:37:28;;;;;;;;;;;5.80;99.90;;;;;;5140778;27;19927;-56
2022/01/09 05:39:54;;;;;;;;;;;6.20;99.90;;;;;;5147918;27;20358;-56
2022/01/09 05:42:21;;;;;;;;;;;5.80;99.90;;;;;;5138687;27;21445;-56
2022/01/09 05:44:47;;;;;;;;;;;5.80;99.90;;;;;;5150384;27;19974;-56
2022/01/09 05:47:13;;;;;;;;;;;5.80;99.90;;;;;;5138214;27;19959;-56
2022/01/09 05:49:38;;;;;;;;;;;5.80;99.90;;;;;;5144277;27;19927;-57
2022/01/09 05:52:04;;;;;;;;;;;5.80;99.90;;;;;;5145874;27;19947;-58
2022/01/09 05:54:30;;;;;;;;;;;5.80;99.90;;;;;;5137258;27;19930;-57
2022/01/09 05:56:55;;;;;;;;;;;5.80;99.90;;;;;;5150385;27;20372;-56
2022/01/09 05:59:21;;;;;;;;;;;5.80;99.90;;;;;;5146562;27;20397;-55
2022/01/09 06:01:47;;;;;;;;;;;5.80;99.90;;;;;;5142885;27;19923;-59
2022/01/09 06:04:12;;;;;;;;;;;5.80;99.90;;;;;;5152141;27;20381;-57
2022/01/09 06:06:38;;;;;;;;;;;5.70;99.90;;;;;;5136504;27;19931;-56
2022/01/09 06:09:04;;;;;;;;;;;5.70;99.90;;;;;;5148762;27;20227;-56
2022/01/09 06:11:29;;;;;;;;;;;5.70;99.90;;;;;;5140260;27;19923;-56
2022/01/09 06:13:55;;;;;;;;;;;5.70;99.90;;;;;;5142114;27;19980;-56
2022/01/09 06:16:22;;;;;;;;;;;5.70;99.90;;;;;;5146917;27;19923;-57
2022/01/09 06:18:48;;;;;;;;;;;5.70;99.90;;;;;;5136124;27;20377;-64
2022/01/09 06:21:13;;;;;;;;;;;5.60;99.90;;;;;;5148760;27;20014;-62
2022/01/09 06:23:39;;;;;;;;;;;5.60;99.90;;;;;;5141490;27;19927;-60
2022/01/09 06:26:05;;;;;;;;;;;5.90;99.90;;;;;;5144838;27;19974;-61
2022/01/09 06:28:30;;;;;;;;;;;5.80;99.90;;;;;;5151067;27;19923;-61
2022/01/09 06:30:56;;;;;;;;;;;5.60;99.90;;;;;;5135884;27;19927;-58
2022/01/09 06:33:21;;;;;;;;;;;5.50;99.90;;;;;;5147136;27;19928;-56
2022/01/09 06:35:47;;;;;;;;;;;5.50;99.90;;;;;;5140761;27;19923;-61
2022/01/09 06:38:12;;;;;;;;;;;5.70;99.90;;;;;;5139792;27;20022;-60
2022/01/09 06:40:38;;;;;;;;;;;5.50;99.90;;;;;;5138772;27;20245;-58
2022/01/09 06:43:04;;;;;;;;;;;5.40;99.90;;;;;;5148156;27;19923;-58
2022/01/09 06:45:29;;;;;;;;;;;5.50;99.90;;;;;;5139583;27;19930;-63
2022/01/09 06:47:56;;;;;;;;;;;5.50;99.90;;;;;;5142061;27;19965;-57
2022/01/09 06:50:21;;;;;;;;;;;5.40;99.90;;;;;;5141010;27;19924;-56
2022/01/09 06:52:48;;;;;;;;;;;5.60;99.90;;;;;;5148860;27;19929;-63
2022/01/09 06:55:13;;;;;;;;;;;5.60;99.90;;;;;;5146056;27;19974;-58
2022/01/09 06:57:39;;;;;;;;;;;5.40;99.90;;;;;;5139332;27;19970;-57
2022/01/09 07:00:06;;;;;;;;;;;5.70;99.90;;;;;;5140424;27;20376;-67
2022/01/09 07:02:31;;;;;;;;;;;5.40;99.90;;;;;;5146870;27;19970;-62
2022/01/09 07:04:58;;;;;;;;;;;5.40;99.90;;;;;;5148841;27;19974;-64
2022/01/09 07:07:23;;;;;;;;;;;5.30;99.90;;;;;;5135327;27;20043;-68
2022/01/09 07:09:49;;;;;;;;;;;5.30;99.90;;;;;;5141974;27;19939;-63
2022/01/09 07:12:14;;;;;;;;;;;5.30;99.90;;;;;;5137718;27;20349;-66
2022/01/09 07:14:40;;;;;;;;;;;5.30;99.90;;;;;;5146226;27;19927;-67
2022/01/09 07:17:06;;;;;;;;;;;5.30;99.90;;;;;;5134363;27;19933;-68
2022/01/09 07:19:32;;;;;;;;;;;5.30;99.90;;;;;;5145047;27;19931;-64
2022/01/09 07:21:57;;;;;;;;;;;5.30;99.90;;;;;;5143039;27;19926;-61
2022/01/09 07:24:23;;;;;;;;;;;5.20;99.90;;;;;;5137944;27;20377;-60
2022/01/09 07:26:48;;;;;;;;;;;5.20;99.90;;;;;;5148712;27;19927;-58
2022/01/09 07:29:14;;;;;;;;;;;5.20;99.90;;;;;;5137676;27;20018;-57
2022/01/09 07:31:39;;;;;;;;;;;5.20;99.90;;;;;;5131342;27;19972;-59
2022/01/09 07:34:05;;;;;;;;;;;5.20;99.90;;;;;;5144167;27;20280;-61
2022/01/09 07:36:31;;;;;;;;;;;5.20;99.90;;;;;;5135176;27;19923;-56
2022/01/09 07:38:56;;;;;;;;;;;5.20;99.90;;;;;;5134370;27;19926;-55
2022/01/09 07:41:22;;;;;;;;;;;5.20;99.90;;;;;;5123876;27;19923;-57
2022/01/09 07:43:47;;;;;;;;;;;5.20;99.90;;;;;;5142118;27;19968;-56
2022/01/09 07:46:13;;;;;;;;;;;5.30;99.90;;;;;;5136846;27;19935;-55
2022/01/09 07:48:39;;;;;;;;;;;5.20;99.90;;;;;;5130411;28;20288;-57
2022/01/09 07:51:05;;;;;;;;;;;5.60;99.90;;;;;;5134894;27;19923;-56
2022/01/09 07:53:31;;;;;;;;;;;5.30;99.90;;;;;;5136356;27;19924;-57
2022/01/09 07:55:56;;;;;;;;;;;5.10;99.90;;;;;;5133087;27;19939;-55
2022/01/09 07:58:22;;;;;;;;;;;5.10;99.90;;;;;;5133129;27;20018;-55
2022/01/09 08:00:48;;;;;;;;;;;5.10;99.90;;;;;;5147818;27;20059;-57
2022/01/09 08:03:14;;;;;;;;;;;5.20;99.90;;;;;;5132397;27;19919;-56
2022/01/09 08:05:39;;;;;;;;;;;5.10;99.90;;;;;;5133226;27;20006;-57
2022/01/09 08:08:05;;;;;;;;;;;5.10;99.90;;;;;;5146019;27;20399;-58
2022/01/09 08:10:31;;;;;;;;;;;5.10;99.90;;;;;;5139843;27;19971;-56
2022/01/09 08:12:56;;;;;;;;;;;5.10;99.90;;;;;;5152206;27;19927;-55
2022/01/09 08:15:22;;;;;;;;;;;5.20;99.90;;;;;;5140552;27;19927;-61
2022/01/09 08:17:49;;;;;;;;;;;5.10;99.90;;;;;;5143836;27;19923;-56
2022/01/09 08:20:18;;;;;;;;;;;5.10;99.90;;;;;;5134665;27;20276;-55
2022/01/09 08:22:44;;;;;;;;;;;5.10;99.90;;;;;;5145661;27;19945;-56
2022/01/09 08:25:10;;;;;;;;;;;5.10;99.90;;;;;;5138060;27;20392;-56
2022/01/09 08:27:35;;;;;;;;;;;5.10;99.90;;;;;;5141121;27;19954;-56
2022/01/09 08:30:01;;;;;;;;;;;5.40;99.90;;;;;;5143482;27;20811;-55
2022/01/09 08:32:27;;;;;;;;;;;5.10;99.90;;;;;;5130651;27;19938;-58
2022/01/09 08:34:52;;;;;;;;;;;5.50;99.90;;;;;;5133396;27;19927;-56
2022/01/09 08:37:18;;;;;;;;;;;5.20;99.90;;;;;;5135071;27;19980;-56
2022/01/09 08:39:46;;;;;;;;;;;5.10;99.90;;;;;;5142082;27;19931;-56
2022/01/09 08:42:12;;;;;;;;;;;5.80;99.90;;;;;;5146271;27;19927;-56
2022/01/09 08:44:38;;;;;;;;;;;5.10;99.90;;;;;;5138082;27;20041;-56
2022/01/09 08:47:04;;;;;;;;;;;5.10;99.90;;;;;;5133662;27;20430;-57
2022/01/09 08:49:30;;;;;;;;;;;5.10;99.90;;;;;;5141485;27;20382;-56
2022/01/09 08:51:55;;;;;;;;;;;5.10;99.90;;;;;;5139502;27;20361;-57
2022/01/09 08:54:21;;;;;;;;;;;5.10;99.90;;;;;;5142747;27;19938;-56
2022/01/09 08:56:47;;;;;;;;;;;5.20;99.90;;;;;;5143462;27;19923;-57
2022/01/09 08:59:12;;;;;;;;;;;5.20;99.90;;;;;;5142285;27;19919;-55
2022/01/09 09:01:38;;;;;;;;;;;5.20;99.90;;;;;;5141841;27;20478;-56
2022/01/09 09:04:04;;;;;;;;;;;5.40;99.90;;;;;;5132219;27;19927;-55
2022/01/09 09:06:30;;;;;;;;;;;5.20;99.90;;;;;;5133119;27;20003;-56
2022/01/09 09:08:56;;;;;;;;;;;6.40;99.90;;;;;;5136109;27;20005;-55
2022/01/09 09:11:21;;;;;;;;;;;5.40;99.90;;;;;;5136104;27;19966;-57
2022/01/09 09:13:47;;;;;;;;;;;5.30;99.90;;;;;;5136072;27;20369;-56
2022/01/09 09:16:14;;;;;;;;;;;5.30;99.90;;;;;;5144163;27;20347;-56
2022/01/09 09:18:40;;;;;;;;;;;5.40;99.90;;;;;;5130204;27;19928;-56
2022/01/09 09:21:05;;;;;;;;;;;5.40;99.90;;;;;;5139289;27;19930;-56
2022/01/09 09:23:31;;;;;;;;;;;5.50;99.90;;;;;;5133655;27;20219;-57
2022/01/09 09:25:57;;;;;;;;;;;5.50;99.90;;;;;;5138833;27;20309;-56
2022/01/09 09:28:22;;;;;;;;;;;5.60;99.90;;;;;;5116747;27;19928;-57
2022/01/09 09:30:48;;;;;;;;;;;5.50;99.90;;;;;;5127891;27;20368;-58
2022/01/09 09:33:13;;;;;;;;;;;5.70;99.90;;;;;;5133124;27;19972;-57
2022/01/09 09:35:39;;;;;;;;;;;5.60;99.90;;;;;;5134218;27;19972;-57
2022/01/09 09:38:05;;;;;;;;;;;5.70;99.90;;;;;;5143451;27;20003;-58
2022/01/09 09:40:30;;;;;;;;;;;5.90;99.90;;;;;;5143363;27;20357;-56
2022/01/09 09:42:56;;;;;;;;;;;5.70;99.90;;;;;;5129764;27;20400;-57
2022/01/09 09:45:23;;;;;;;;;;;5.70;99.90;;;;;;5129464;27;19927;-59
2022/01/09 09:47:50;;;;;;;;;;;5.80;99.90;;;;;;5138468;27;19927;-57
2022/01/09 09:50:19;;;;;;;;;;;5.80;99.90;;;;;;5132497;27;19927;-56
2022/01/09 09:52:45;;;;;;;;;;;5.80;99.90;;;;;;5140938;27;20343;-57
2022/01/09 09:55:11;;;;;;;;;;;6.00;99.90;;;;;;5133945;27;19933;-58
2022/01/09 09:57:37;;;;;;;;;;;5.80;99.90;;;;;;5141951;27;20307;-57
2022/01/09 10:00:08;;;;;;;;;;;5.80;99.90;;;;;;5141321;27;19938;-58
2022/01/09 10:02:43;;;;;;;;;;;5.80;99.90;;;;;;5134757;27;19934;-61
2022/01/09 10:05:10;;;;;;;;;;;5.90;99.90;;;;;;5132162;27;19932;-59
2022/01/09 10:07:35;;;;;;;;;;;5.80;99.90;;;;;;5135020;27;19931;-56
2022/01/09 10:10:03;;;;;;;;;;;5.80;99.90;;;;;;5130438;27;19934;-57
2022/01/09 10:12:30;;;;;;;;;;;5.80;99.90;;;;;;5132444;27;19950;-56
2022/01/09 10:14:57;;;;;;;;;;;5.90;99.90;;;;;;5134345;27;19928;-56
2022/01/09 10:17:24;;;;;;;;;;;6.50;99.90;;;;;;5143189;27;19930;-56
2022/01/09 10:20:02;;;;;;;;;;;5.90;99.90;;;;;;5138419;27;19932;-58
2022/01/09 10:22:28;;;;;;;;;;;5.90;99.90;;;;;;5136219;27;19927;-56
2022/01/09 10:24:55;;;;;;;;;;;6.20;99.90;;;;;;5137355;27;20356;-56
2022/01/09 10:27:27;;;;;;;;;;;5.90;99.90;;;;;;5133389;27;19930;-56
2022/01/09 10:29:56;;;;;;;;;;;5.90;99.90;;;;;;5138576;27;20365;-59
2022/01/09 10:32:29;;;;;;;;;;;5.80;99.90;;;;;;5128461;27;19928;-56
2022/01/09 10:35:10;;;;;;;;;;;5.90;99.90;;;;;;5137958;27;19935;-56
2022/01/09 10:37:36;;;;;;;;;;;6.00;99.90;;;;;;5141268;27;19974;-56
2022/01/09 10:40:05;;;;;;;;;;;5.90;99.90;;;;;;5116348;27;19942;-56
2022/01/09 10:42:31;;;;;;;;;;;5.90;99.90;;;;;;5125248;27;19980;-58
2022/01/09 10:45:36;;;;;;;;;;;6.00;99.90;;;;;;5131868;27;20342;-58
2022/01/09 10:48:04;;;;;;;;;;;7.40;99.90;;;;;;5062660;28;20119;-57
2022/01/09 10:50:30;;;;;;;;;;;6.10;99.90;;;;;;5064280;28;19928;-56
2022/01/09 10:53:31;;;;;;;;;;;6.20;99.90;;;;;;5097654;27;19971;-60
2022/01/09 10:56:02;;;;;;;;;;;6.20;99.90;;;;;;5044652;28;19933;-59
2022/01/09 10:58:27;;;;;;;;;;;6.30;99.90;;;;;;5128107;27;20025;-59
2022/01/09 11:01:12;;;;;;;;;;;6.30;99.90;;;;;;5141250;27;20007;-56
2022/01/09 11:03:38;;;;;;;;;;;6.40;99.90;;;;;;5131282;27;20023;-61
2022/01/09 11:06:04;;;;;;;;;;;6.40;99.90;;;;;;5136248;27;19927;-64
2022/01/09 11:08:30;;;;;;;;;;;6.40;99.90;;;;;;5131595;27;19927;-61
2022/01/09 11:10:57;;;;;;;;;;;6.40;99.90;;;;;;5130053;27;19927;-61
2022/01/09 11:13:23;;;;;;;;;;;6.40;99.90;;;;;;5144090;27;19927;-60
2022/01/09 11:18:34;;;;;;;;;;;6.30;99.90;;;;;;5135216;27;19983;-57
2022/01/09 11:21:00;;;;;;;;;;;7.20;99.90;;;;;;5133175;27;20384;-57
2022/01/09 11:23:37;;;;;;;;;;;6.30;99.90;;;;;;5142368;27;19938;-56
2022/01/09 11:26:05;;;;;;;;;;;6.40;99.90;;;;;;5134828;27;19927;-56
2022/01/09 11:28:34;;;;;;;;;;;6.20;99.90;;;;;;5143832;27;19927;-61
2022/01/09 11:31:11;;;;;;;;;;;6.40;99.90;;;;;;5132526;27;20023;-56
2022/01/09 11:33:46;;;;;;;;;;;6.20;99.90;;;;;;5133079;27;20353;-58
2022/01/09 11:36:30;;;;;;;;;;;6.30;99.90;;;;;;5134979;27;19989;-59
2022/01/09 11:39:12;;;;;;;;;;;6.30;99.90;;;;;;5130758;27;20015;-56
2022/01/09 11:41:39;;;;;;;;;;;6.40;99.90;;;;;;5143501;27;19934;-61
2022/01/09 11:44:08;;;;;;;;;;;6.50;99.90;;;;;;5135577;27;19927;-59
2022/01/09 11:46:52;;;;;;;;;;;6.50;99.90;;;;;;5144622;27;19923;-59
2022/01/09 11:49:20;;;;;;;;;;;6.60;99.90;;;;;;5135371;27;20366;-56
2022/01/09 11:51:51;;;;;;;;;;;6.60;99.90;;;;;;5143181;27;19931;-62
2022/01/09 11:54:18;;;;;;;;;;;6.60;99.90;;;;;;5136535;27;20368;-57
2022/01/09 11:56:44;;;;;;;;;;;6.60;99.90;;;;;;5148886;27;19989;-57
2022/01/09 11:59:26;;;;;;;;;;;6.70;99.90;;;;;;5136495;27;20480;-58
2022/01/09 12:01:53;;;;;;;;;;;6.80;99.90;;;;;;5143594;27;19927;-57
2022/01/09 12:04:49;;;;;;;;;;;6.80;99.90;;;;;;5134500;27;20029;-60
2022/01/09 12:07:19;;;;;;;;;;;6.80;99.90;;;;;;5124947;27;19927;-59
2022/01/09 12:09:46;;;;;;;;;;;6.80;99.90;;;;;;5148275;27;19931;-56
2022/01/09 12:12:19;;;;;;;;;;;6.80;99.90;;;;;;5145685;27;20410;-56
2022/01/09 12:14:54;;;;;;;;;;;6.80;99.90;;;;;;5145619;27;19956;-58
2022/01/09 12:17:26;;;;;;;;;;;6.90;99.90;;;;;;5140097;27;19927;-57
2022/01/09 12:19:54;;;;;;;;;;;6.90;99.90;;;;;;5136735;27;20014;-57
2022/01/09 12:22:39;;;;;;;;;;;6.90;99.90;;;;;;5138802;27;19934;-56
2022/01/09 12:25:05;;;;;;;;;;;7.00;99.90;;;;;;5143165;27;20399;-57
2022/01/09 12:27:41;;;;;;;;;;;7.00;99.90;;;;;;5139038;27;19927;-57
2022/01/09 12:30:07;;;;;;;;;;;7.20;99.90;;;;;;5138496;27;20002;-58
2022/01/09 12:32:44;;;;;;;;;;;7.40;99.90;;;;;;5143902;27;20033;-56
2022/01/09 12:35:12;;;;;;;;;;;7.60;99.90;;;;;;5143939;27;19952;-56
2022/01/09 12:37:43;;;;;;;;;;;7.60;99.90;;;;;;5132747;27;20342;-56
2022/01/09 12:40:10;;;;;;;;;;;7.60;99.90;;;;;;5140040;27;20008;-57
2022/01/09 12:42:35;;;;;;;;;;;7.70;99.90;;;;;;5136196;27;20385;-56
2022/01/09 12:45:01;;;;;;;;;;;7.60;99.90;;;;;;5147247;27;19934;-56
2022/01/09 12:47:37;;;;;;;;;;;7.70;99.90;;;;;;5143254;27;20297;-56
2022/01/09 12:50:03;;;;;;;;;;;7.70;99.90;;;;;;5137818;27;19931;-57
2022/01/09 12:52:28;;;;;;;;;;;7.70;99.90;;;;;;5138504;27;19928;-57
2022/01/09 12:55:07;;;;;;;;;;;7.60;99.90;;;;;;5143849;27;19933;-61
2022/01/09 12:57:49;;;;;;;;;;;7.70;99.90;;;;;;5133643;27;19938;-57
2022/01/09 13:00:14;;;;;;;;;;;7.80;99.90;;;;;;5140515;27;19927;-56
2022/01/09 13:02:40;;;;;;;;;;;7.90;99.90;;;;;;5134474;27;20433;-60
2022/01/09 13:05:06;;;;;;;;;;;7.90;99.90;;;;;;5139713;27;19982;-57
2022/01/09 13:07:31;;;;;;;;;;;7.90;99.90;;;;;;5135306;27;20288;-56
2022/01/09 13:09:57;;;;;;;;;;;7.90;99.90;;;;;;5140285;27;19980;-56
2022/01/09 13:12:23;;;;;;;;;;;7.90;99.90;;;;;;5133433;27;19927;-57
2022/01/09 13:14:49;;;;;;;;;;;7.90;99.90;;;;;;5132719;27;19927;-57
2022/01/09 13:17:17;;;;;;;;;;;8.00;99.90;;;;;;5141208;27;19943;-57
2022/01/09 13:19:42;;;;;;;;;;;8.10;99.90;;;;;;5138243;27;20013;-57
2022/01/09 13:22:15;;;;;;;;;;;8.00;99.90;;;;;;5140464;27;20395;-57
2022/01/09 13:24:41;;;;;;;;;;;8.00;99.90;;;;;;5140962;27;19927;-60
2022/01/09 13:27:08;;;;;;;;;;;7.80;99.90;;;;;;5142212;27;19927;-56
2022/01/09 13:29:35;;;;;;;;;;;7.70;99.90;;;;;;5140558;27;19927;-59
2022/01/09 13:32:02;;;;;;;;;;;7.90;99.90;;;;;;5150629;27;19927;-57
2022/01/09 13:34:33;;;;;;;;;;;8.00;99.90;;;;;;5149911;27;19927;-56
2022/01/09 13:37:00;;;;;;;;;;;8.10;99.90;;;;;;5133506;27;20027;-56
2022/01/09 13:39:27;;;;;;;;;;;7.90;99.90;;;;;;5143443;27;19984;-57
2022/01/09 13:41:56;;;;;;;;;;;7.60;99.90;;;;;;5130174;27;20094;-56
2022/01/09 13:44:22;;;;;;;;;;;7.50;99.90;;;;;;5132635;27;19931;-56
2022/01/09 13:46:59;;;;;;;;;;;7.50;99.90;;;;;;5134348;27;19927;-56
2022/01/09 13:49:24;;;;;;;;;;;7.50;99.90;;;;;;5139673;27;19931;-60
2022/01/09 13:51:50;;;;;;;;;;;7.40;99.90;;;;;;5139507;27;19979;-56
2022/01/09 13:54:20;;;;;;;;;;;7.40;99.90;;;;;;5131556;27;19969;-58
2022/01/09 13:57:06;;;;;;;;;;;7.40;99.90;;;;;;5131264;27;19986;-56
2022/01/09 13:59:36;;;;;;;;;;;7.40;99.90;;;;;;5136263;27;19927;-57
2022/01/09 14:02:02;;;;;;;;;;;7.40;99.90;;;;;;5147801;27;19927;-57
2022/01/09 14:04:27;;;;;;;;;;;7.40;99.90;;;;;;5131661;27;19933;-57
2022/01/09 14:06:57;;;;;;;;;;;7.40;99.90;;;;;;5142591;27;19935;-56
2022/01/09 14:09:41;;;;;;;;;;;7.40;99.90;;;;;;5136839;27;20400;-58
2022/01/09 14:12:11;;;;;;;;;;;7.40;99.90;;;;;;5137262;27;19935;-58
2022/01/09 14:14:37;;;;;;;;;;;7.30;99.90;;;;;;5159904;27;19931;-57
2022/01/09 14:17:21;;;;;;;;;;;7.10;99.90;;;;;;5130616;27;19934;-56
2022/01/09 14:19:47;;;;;;;;;;;7.00;99.90;;;;;;5132058;27;20037;-56
2022/01/09 14:22:12;;;;;;;;;;;6.90;99.90;;;;;;5131123;27;20018;-57
2022/01/09 14:24:58;;;;;;;;;;;6.80;99.90;;;;;;5132730;27;19927;-58
2022/01/09 14:27:27;;;;;;;;;;;6.70;99.90;;;;;;5125692;27;19933;-57
2022/01/09 14:29:53;;;;;;;;;;;6.70;99.90;;;;;;5127200;27;19927;-57
2022/01/09 14:32:19;;;;;;;;;;;6.60;99.90;;;;;;5131958;27;19933;-58
2022/01/09 14:34:44;;;;;;;;;;;6.50;99.90;;;;;;5128900;27;19927;-56
2022/01/09 14:37:11;;;;;;;;;;;6.40;99.90;;;;;;5127258;27;20293;-57
2022/01/09 14:39:36;;;;;;;;;;;6.40;99.90;;;;;;5128515;27;19931;-58